sensor_id;sensor_type;location;lat;lon;timestamp;P1;durP1;ratioP1;P2;durP2;ratioP2
51292;SDS011;37377;45.186;9.778;2024-02-21T08:42:00;32.7;;;22.9;;
51292;SDS011;37377;45.186;9.778;2024-02-21T08:43:00;32.7;;;22.9;;
51292;SDS011;37377;45.186;9.778;2024-02-21T08:44:01;29.0;;;22.5;;
51292;SDS011;37377;45.186;9.778;2024-02-21T08:45:00;29.0;;;22.5;;
51292;SDS011;37377;45.186;9.778;2024-02-21T08:46:00;29.0;;;22.5;;
51292;SDS011;37377;45.186;9.778;2024-02-21T08:47:03;26.6;;;22.6;;
51292;SDS011;37377;45.186;9.778;2024-02-21T08:48:00;26.6;;;22.6;;
51292;SDS011;37377;45.186;9.778;2024-02-21T08:49:00;26.6;;;22.6;;
51292;SDS011;37377;45.186;9.778;2024-02-21T08:51:00;34.2;;;23.2;;
51292;SDS011;37377;45.186;9.778;2024-02-21T08:52:00;34.2;;;23.2;;
51292;SDS011;37377;45.186;9.778;2024-02-21T08:53:01;30.5;;;22.6;;
51292;SDS011;37377;45.186;9.778;2024-02-21T08:54:01;30.5;;;22.6;;
51292;SDS011;37377;45.186;9.778;2024-02-21T08:55:00;30.5;;;22.6;;
51292;SDS011;37377;45.186;9.778;2024-02-21T08:56:00;34.1;;;23.5;;
51292;SDS011;37377;45.186;9.778;2024-02-21T08:57:00;34.1;;;23.5;;
51292;SDS011;37377;45.186;9.778;2024-02-21T08:58:00;34.1;;;23.5;;
51292;SDS011;37377;45.186;9.778;2024-02-21T08:59:01;30.4;;;23.2;;
51292;SDS011;37377;45.186;9.778;2024-02-21T09:00:00;30.4;;;23.2;;
51292;SDS011;37377;45.186;9.778;2024-02-21T09:01:00;30.4;;;23.2;;
51292;SDS011;37377;45.186;9.778;2024-02-21T09:02:00;30.7;;;23.1;;
51292;SDS011;37377;45.186;9.778;2024-02-21T09:03:00;30.7;;;23.1;;
51292;SDS011;37377;45.186;9.778;2024-02-21T09:04:00;30.7;;;23.1;;
51292;SDS011;37377;45.186;9.778;2024-02-21T09:05:00;38.7;;;31.5;;
51292;SDS011;37377;45.186;9.778;2024-02-21T09:06:00;38.7;;;31.5;;
51292;SDS011;37377;45.186;9.778;2024-02-21T09:07:00;38.7;;;31.5;;
51292;SDS011;37377;45.186;9.778;2024-02-21T09:08:00;36.7;;;27.5;;
51292;SDS011;37377;45.186;9.778;2024-02-21T09:09:00;36.7;;;27.5;;
51292;SDS011;37377;45.186;9.778;2024-02-21T09:10:00;36.7;;;27.5;;
51292;SDS011;37377;45.186;9.778;2024-02-21T09:11:01;40.4;;;29.6;;
51292;SDS011;37377;45.186;9.778;2024-02-21T09:12:06;40.4;;;29.6;;
51292;SDS011;37377;45.186;9.778;2024-02-21T09:13:00;40.4;;;29.6;;
51292;SDS011;37377;45.186;9.778;2024-02-21T09:14:00;43.1;;;30.2;;
51292;SDS011;37377;45.186;9.778;2024-02-21T09:15:00;43.1;;;30.2;;
51292;SDS011;37377;45.186;9.778;2024-02-21T09:16:00;43.1;;;30.2;;
51292;SDS011;37377;45.186;9.778;2024-02-21T09:17:00;43.1;;;30.2;;
51292;SDS011;37377;45.186;9.778;2024-02-21T09:18:01;43.1;;;30.2;;
51292;SDS011;37377;45.186;9.778;2024-02-21T09:19:00;43.1;;;30.2;;
51292;SDS011;37377;45.186;9.778;2024-02-21T09:24:01;48.1;;;36.1;;
51292;SDS011;37377;45.186;9.778;2024-02-21T09:25:01;48.1;;;36.1;;
51292;SDS011;37377;45.186;9.778;2024-02-21T09:26:03;48.1;;;36.1;;
51292;SDS011;37377;45.186;9.778;2024-02-21T09:30:00;46.7;;;34.0;;
51292;SDS011;37377;45.186;9.778;2024-02-21T09:31:00;46.7;;;34.0;;
51292;SDS011;37377;45.186;9.778;2024-02-21T09:32:00;46.7;;;34.0;;
51292;SDS011;37377;45.186;9.778;2024-02-21T09:50:02;57.9;;;40.7;;
51292;SDS011;37377;45.186;9.778;2024-02-21T09:51:02;57.9;;;40.7;;
51292;SDS011;37377;45.186;9.778;2024-02-21T09:52:03;57.9;;;40.7;;
51292;SDS011;37377;45.186;9.778;2024-02-21T09:56:01;53.5;;;41.5;;
51292;SDS011;37377;45.186;9.778;2024-02-21T09:57:00;53.5;;;41.5;;
51292;SDS011;37377;45.186;9.778;2024-02-21T09:58:01;53.5;;;41.5;;
51292;SDS011;37377;45.186;9.778;2024-02-21T09:59:04;53.5;;;41.5;;
51292;SDS011;37377;45.186;9.778;2024-02-21T10:00:04;53.5;;;41.5;;
51292;SDS011;37377;45.186;9.778;2024-02-21T10:39:00;82.5;;;62.2;;
51292;SDS011;37377;45.186;9.778;2024-02-21T10:40:00;82.5;;;62.2;;
51292;SDS011;37377;45.186;9.778;2024-02-21T10:41:04;82.5;;;62.2;;
51292;SDS011;37377;45.186;9.778;2024-02-21T10:42:04;82.5;;;62.2;;
51292;SDS011;37377;45.186;9.778;2024-02-21T11:21:01;76.4;;;59.1;;
51292;SDS011;37377;45.186;9.778;2024-02-21T11:22:04;76.4;;;59.1;;
51292;SDS011;37377;45.186;9.778;2024-02-21T11:24:02;82.0;;;60.6;;
51292;SDS011;37377;45.186;9.778;2024-02-21T11:27:19;84.5;;;63.7;;
51292;SDS011;37377;45.186;9.778;2024-02-21T11:28:01;84.5;;;63.7;;
51292;SDS011;37377;45.186;9.778;2024-02-21T11:29:04;85.3;;;63.0;;
51292;SDS011;37377;45.186;9.778;2024-02-21T11:30:04;85.3;;;63.0;;
51292;SDS011;37377;45.186;9.778;2024-02-21T14:17:00;73.5;;;54.7;;
51292;SDS011;37377;45.186;9.778;2024-02-21T14:18:00;73.5;;;54.7;;
51292;SDS011;37377;45.186;9.778;2024-02-21T14:19:00;73.5;;;54.7;;
51292;SDS011;37377;45.186;9.778;2024-02-21T14:20:01;73.5;;;54.7;;
51292;SDS011;37377;45.186;9.778;2024-02-21T14:42:00;70.2;;;56.1;;
51292;SDS011;37377;45.186;9.778;2024-02-21T14:43:00;70.2;;;56.1;;
51292;SDS011;37377;45.186;9.778;2024-02-21T14:44:04;70.2;;;56.1;;
51292;SDS011;37377;45.186;9.778;2024-02-21T14:45:04;70.2;;;56.1;;
51292;SDS011;37377;45.186;9.778;2024-02-21T14:46:02;76.0;;;57.0;;
51292;SDS011;37377;45.186;9.778;2024-02-21T14:47:00;76.0;;;57.0;;
51292;SDS011;37377;45.186;9.778;2024-02-21T14:48:01;76.0;;;57.0;;
51292;SDS011;37377;45.186;9.778;2024-02-21T14:59:00;77.5;;;58.4;;
51292;SDS011;37377;45.186;9.778;2024-02-21T15:00:02;77.5;;;58.4;;
51292;SDS011;37377;45.186;9.778;2024-02-21T15:02:00;79.8;;;57.9;;
51292;SDS011;37377;45.186;9.778;2024-02-21T15:03:00;79.8;;;57.9;;
51292;SDS011;37377;45.186;9.778;2024-02-21T15:04:00;79.8;;;57.9;;
51292;SDS011;37377;45.186;9.778;2024-02-21T15:16:00;75.7;;;58.7;;
51292;SDS011;37377;45.186;9.778;2024-02-21T15:17:00;75.7;;;58.7;;
51292;SDS011;37377;45.186;9.778;2024-02-21T15:19:00;81.9;;;57.7;;
51292;SDS011;37377;45.186;9.778;2024-02-21T15:20:01;81.9;;;57.7;;
51292;SDS011;37377;45.186;9.778;2024-02-21T15:21:01;81.9;;;57.7;;
51292;SDS011;37377;45.186;9.778;2024-02-21T15:22:00;81.9;;;57.7;;
51292;SDS011;37377;45.186;9.778;2024-02-21T15:37:00;86.2;;;57.5;;
51292;SDS011;37377;45.186;9.778;2024-02-21T15:38:01;86.2;;;57.5;;
51292;SDS011;37377;45.186;9.778;2024-02-21T15:42:00;76.0;;;57.3;;
51292;SDS011;37377;45.186;9.778;2024-02-21T15:43:00;76.0;;;57.3;;
51292;SDS011;37377;45.186;9.778;2024-02-21T15:50:01;78.3;;;57.6;;
51292;SDS011;37377;45.186;9.778;2024-02-21T15:51:02;78.3;;;57.6;;
51292;SDS011;37377;45.186;9.778;2024-02-21T15:52:00;78.3;;;57.6;;
51292;SDS011;37377;45.186;9.778;2024-02-21T15:58:00;78.8;;;59.0;;
51292;SDS011;37377;45.186;9.778;2024-02-21T15:59:01;78.8;;;59.0;;
51292;SDS011;37377;45.186;9.778;2024-02-21T16:00:00;78.8;;;59.0;;
51292;SDS011;37377;45.186;9.778;2024-02-21T16:01:02;78.8;;;59.0;;
51292;SDS011;37377;45.186;9.778;2024-02-21T16:02:00;78.8;;;59.0;;
51292;SDS011;37377;45.186;9.778;2024-02-21T16:03:00;78.8;;;59.0;;
51292;SDS011;37377;45.186;9.778;2024-02-21T16:04:00;78.8;;;59.0;;
51292;SDS011;37377;45.186;9.778;2024-02-21T16:09:00;79.8;;;60.7;;
51292;SDS011;37377;45.186;9.778;2024-02-21T16:10:01;79.8;;;60.7;;
51292;SDS011;37377;45.186;9.778;2024-02-21T16:11:00;79.8;;;60.7;;
51292;SDS011;37377;45.186;9.778;2024-02-21T16:12:05;79.8;;;60.7;;
51292;SDS011;37377;45.186;9.778;2024-02-21T16:13:00;78.9;;;59.6;;
51292;SDS011;37377;45.186;9.778;2024-02-21T16:14:02;78.9;;;59.6;;
51292;SDS011;37377;45.186;9.778;2024-02-21T16:15:01;78.9;;;59.6;;
51292;SDS011;37377;45.186;9.778;2024-02-21T16:16:00;78.9;;;59.6;;
51292;SDS011;37377;45.186;9.778;2024-02-21T16:17:00;78.9;;;59.6;;
51292;SDS011;37377;45.186;9.778;2024-02-21T16:18:00;78.9;;;59.6;;
51292;SDS011;37377;45.186;9.778;2024-02-21T16:19:02;78.9;;;59.6;;
51292;SDS011;37377;45.186;9.778;2024-02-21T16:20:01;78.9;;;59.6;;
51292;SDS011;37377;45.186;9.778;2024-02-21T16:21:01;78.9;;;59.6;;
51292;SDS011;37377;45.186;9.778;2024-02-21T16:22:00;78.9;;;59.6;;
51292;SDS011;37377;45.186;9.778;2024-02-21T16:23:03;78.9;;;59.6;;
51292;SDS011;37377;45.186;9.778;2024-02-21T16:28:01;88.1;;;60.4;;
51292;SDS011;37377;45.186;9.778;2024-02-21T16:29:00;88.1;;;60.4;;
51292;SDS011;37377;45.186;9.778;2024-02-21T16:30:00;88.1;;;60.4;;
51292;SDS011;37377;45.186;9.778;2024-02-21T16:44:00;95.7;;;64.4;;
51292;SDS011;37377;45.186;9.778;2024-02-21T16:45:00;95.0;;;64.0;;
51292;SDS011;37377;45.186;9.778;2024-02-21T16:46:00;95.0;;;64.0;;
51292;SDS011;37377;45.186;9.778;2024-02-21T16:47:00;95.0;;;64.0;;
51292;SDS011;37377;45.186;9.778;2024-02-21T16:48:02;99.9;;;65.9;;
51292;SDS011;37377;45.186;9.778;2024-02-21T16:49:00;99.9;;;65.9;;
51292;SDS011;37377;45.186;9.778;2024-02-21T16:50:00;99.9;;;65.9;;
51292;SDS011;37377;45.186;9.778;2024-02-21T16:51:04;106.5;;;66.1;;
51292;SDS011;37377;45.186;9.778;2024-02-21T16:55:00;102.2;;;67.8;;
51292;SDS011;37377;45.186;9.778;2024-02-21T16:56:02;102.2;;;67.8;;
51292;SDS011;37377;45.186;9.778;2024-02-21T16:57:00;107.5;;;69.3;;
51292;SDS011;37377;45.186;9.778;2024-02-21T16:58:00;107.5;;;69.3;;
51292;SDS011;37377;45.186;9.778;2024-02-21T17:02:01;102.6;;;68.0;;
51292;SDS011;37377;45.186;9.778;2024-02-21T17:03:00;102.6;;;68.0;;
51292;SDS011;37377;45.186;9.778;2024-02-21T17:04:00;102.6;;;68.0;;
51292;SDS011;37377;45.186;9.778;2024-02-21T17:05:00;102.6;;;68.0;;
51292;SDS011;37377;45.186;9.778;2024-02-21T17:30:00;105.6;;;76.2;;
51292;SDS011;37377;45.186;9.778;2024-02-21T17:31:00;105.6;;;76.2;;
51292;SDS011;37377;45.186;9.778;2024-02-21T17:32:00;105.6;;;76.2;;
51292;SDS011;37377;45.186;9.778;2024-02-21T17:33:00;105.6;;;76.2;;
51292;SDS011;37377;45.186;9.778;2024-02-21T17:34:00;105.6;;;76.2;;
51292;SDS011;37377;45.186;9.778;2024-02-21T17:45:00;120.4;;;79.3;;
51292;SDS011;37377;45.186;9.778;2024-02-21T17:46:01;120.4;;;79.3;;
51292;SDS011;37377;45.186;9.778;2024-02-21T17:47:00;120.4;;;79.3;;
51292;SDS011;37377;45.186;9.778;2024-02-21T17:48:00;120.4;;;79.3;;
51292;SDS011;37377;45.186;9.778;2024-02-21T17:49:00;120.4;;;79.3;;
51292;SDS011;37377;45.186;9.778;2024-02-21T17:50:00;120.4;;;79.3;;
51292;SDS011;37377;45.186;9.778;2024-02-21T17:51:00;120.4;;;79.3;;
51292;SDS011;37377;45.186;9.778;2024-02-21T17:56:00;125.9;;;81.5;;
51292;SDS011;37377;45.186;9.778;2024-02-21T17:57:03;125.9;;;81.5;;
51292;SDS011;37377;45.186;9.778;2024-02-21T17:58:00;125.9;;;81.5;;
51292;SDS011;37377;45.186;9.778;2024-02-21T17:59:00;118.5;;;80.2;;
51292;SDS011;37377;45.186;9.778;2024-02-21T18:00:02;118.5;;;80.2;;
51292;SDS011;37377;45.186;9.778;2024-02-21T18:01:02;118.5;;;80.2;;
51292;SDS011;37377;45.186;9.778;2024-02-21T18:02:00;118.5;;;80.2;;
51292;SDS011;37377;45.186;9.778;2024-02-21T18:08:00;121.6;;;80.9;;
51292;SDS011;37377;45.186;9.778;2024-02-21T18:09:00;121.6;;;80.9;;
